Portada
METAR-TAF:

METAR-TAF

Aeropuertos :

Aeropuerto de Trieste - Friuli Venezia Giulia

Trieste / Ronchi dei Legionari, Italia

latitud: 45-49N, longitud: 013-29E, altitud: 12 m

Observación

El informe se hizo hace 19 minutos, a las 00:50 UTC
Viento 5 kt del noroeste
Temperatura 4°C
Humedad 81%
Presión 1006 hPa
Visibilidad 10 km o más

METAR: LIPQ 270050Z AUTO 32005KT 9999 BKN150/// 04/01 Q1006

Hora: 02:09 (01:09 UTC)

Pronóstico

El informe se hizo hace 2 horas y 9 minutos, a las 23:00 UTC
Pronóstico válido del 27 a las 00 UTC al 27 a las 24 UTC
Viento 5 kt con dirección variable
Visibilidad 10 km o más
Nubes dispersas a una altura de 4000 ft
Evolucionando progresivamente
del 27 a las 10 UTC al 27 a las 12 UTC
Viento 10 kt del sur

TAF: LIPQ 262300Z 2700/2724 VRB05KT 9999 SCT040 BECMG 2710/2712 19010KT

Observaciones y pronósticos meteorológicos de más de 4000 aeropuertos (mensajes METAR y TAF).

Los puntos amarillos y rojos representan las estaciones disponibles.

Ponga el ratón en el punto deseado para ver el nombre de la estación.

Haga clic para ver las observaciones y los pronósticos meteorológicos.

Para cambiar el mapa : haga clic en los botones verdes con una cruz de color negro para hacer un zoom, en el botón verde con un guión para alejar o en las flechas verdes para mapas adyacentes.


METAR-TAF: